sensor_id;sensor_type;location;lat;lon;timestamp;temperature;humidity
64396;DHT22;50717;53.360;6.290;2023-06-10T00:01:53;14.80;99.90
64396;DHT22;50717;53.360;6.290;2023-06-10T00:04:28;14.60;99.90
64396;DHT22;50717;53.360;6.290;2023-06-10T00:06:54;14.70;99.90
64396;DHT22;50717;53.360;6.290;2023-06-10T00:09:20;15.00;99.90
64396;DHT22;50717;53.360;6.290;2023-06-10T00:11:46;14.90;99.90
64396;DHT22;50717;53.360;6.290;2023-06-10T00:14:12;14.60;99.90
64396;DHT22;50717;53.360;6.290;2023-06-10T00:16:38;14.80;99.90
64396;DHT22;50717;53.360;6.290;2023-06-10T00:19:04;14.60;99.90
64396;DHT22;50717;53.360;6.290;2023-06-10T00:21:32;14.90;99.90
64396;DHT22;50717;53.360;6.290;2023-06-10T00:24:11;14.60;99.90
64396;DHT22;50717;53.360;6.290;2023-06-10T00:26:40;14.70;99.90
64396;DHT22;50717;53.360;6.290;2023-06-10T00:29:06;14.70;99.90
64396;DHT22;50717;53.360;6.290;2023-06-10T00:31:34;14.40;99.90
64396;DHT22;50717;53.360;6.290;2023-06-10T00:34:00;14.60;99.90
64396;DHT22;50717;53.360;6.290;2023-06-10T00:36:25;14.50;99.90
64396;DHT22;50717;53.360;6.290;2023-06-10T00:38:52;14.10;99.90
64396;DHT22;50717;53.360;6.290;2023-06-10T00:41:18;14.30;99.90
64396;DHT22;50717;53.360;6.290;2023-06-10T00:43:43;13.90;99.90
64396;DHT22;50717;53.360;6.290;2023-06-10T00:46:10;13.70;99.90
64396;DHT22;50717;53.360;6.290;2023-06-10T00:48:37;14.20;99.90
64396;DHT22;50717;53.360;6.290;2023-06-10T00:51:05;14.40;99.90
64396;DHT22;50717;53.360;6.290;2023-06-10T00:53:32;13.90;99.90
64396;DHT22;50717;53.360;6.290;2023-06-10T00:55:58;13.60;99.90
64396;DHT22;50717;53.360;6.290;2023-06-10T00:58:24;13.80;99.90
64396;DHT22;50717;53.360;6.290;2023-06-10T01:00:51;13.90;99.90
64396;DHT22;50717;53.360;6.290;2023-06-10T01:03:17;13.40;99.90
64396;DHT22;50717;53.360;6.290;2023-06-10T01:05:43;14.00;99.90
64396;DHT22;50717;53.360;6.290;2023-06-10T01:10:59;14.00;99.90
64396;DHT22;50717;53.360;6.290;2023-06-10T01:13:25;13.50;99.90
64396;DHT22;50717;53.360;6.290;2023-06-10T01:15:54;13.20;99.90
64396;DHT22;50717;53.360;6.290;2023-06-10T01:18:21;13.30;99.90
64396;DHT22;50717;53.360;6.290;2023-06-10T01:20:47;13.60;99.90
64396;DHT22;50717;53.360;6.290;2023-06-10T01:23:15;13.60;99.90
64396;DHT22;50717;53.360;6.290;2023-06-10T01:25:47;13.20;99.90
64396;DHT22;50717;53.360;6.290;2023-06-10T01:31:30;13.40;99.90
64396;DHT22;50717;53.360;6.290;2023-06-10T01:33:52;13.10;99.90
64396;DHT22;50717;53.360;6.290;2023-06-10T01:36:19;13.30;99.90
64396;DHT22;50717;53.360;6.290;2023-06-10T01:38:47;12.90;99.90
64396;DHT22;50717;53.360;6.290;2023-06-10T01:41:16;12.70;99.90
64396;DHT22;50717;53.360;6.290;2023-06-10T01:43:44;13.60;99.90
64396;DHT22;50717;53.360;6.290;2023-06-10T01:46:10;13.40;99.90
64396;DHT22;50717;53.360;6.290;2023-06-10T01:48:37;13.30;99.90
64396;DHT22;50717;53.360;6.290;2023-06-10T01:51:03;12.90;99.90
64396;DHT22;50717;53.360;6.290;2023-06-10T01:53:29;13.10;99.90
64396;DHT22;50717;53.360;6.290;2023-06-10T01:55:55;12.90;99.90
64396;DHT22;50717;53.360;6.290;2023-06-10T01:58:20;13.40;99.90
64396;DHT22;50717;53.360;6.290;2023-06-10T02:00:46;12.30;99.90
64396;DHT22;50717;53.360;6.290;2023-06-10T02:03:12;12.90;99.90
64396;DHT22;50717;53.360;6.290;2023-06-10T02:05:38;12.70;99.90
64396;DHT22;50717;53.360;6.290;2023-06-10T02:08:04;12.90;99.90
64396;DHT22;50717;53.360;6.290;2023-06-10T02:10:30;12.90;99.90
64396;DHT22;50717;53.360;6.290;2023-06-10T02:12:56;12.90;99.90
64396;DHT22;50717;53.360;6.290;2023-06-10T02:15:21;12.50;99.90
64396;DHT22;50717;53.360;6.290;2023-06-10T02:17:47;13.00;99.90
64396;DHT22;50717;53.360;6.290;2023-06-10T02:20:14;12.50;99.90
64396;DHT22;50717;53.360;6.290;2023-06-10T02:22:40;12.70;99.90
64396;DHT22;50717;53.360;6.290;2023-06-10T02:25:06;12.50;99.90
64396;DHT22;50717;53.360;6.290;2023-06-10T02:27:32;12.80;99.90
64396;DHT22;50717;53.360;6.290;2023-06-10T02:29:58;12.90;99.90
64396;DHT22;50717;53.360;6.290;2023-06-10T02:32:23;12.10;99.90
64396;DHT22;50717;53.360;6.290;2023-06-10T02:34:49;12.10;99.90
64396;DHT22;50717;53.360;6.290;2023-06-10T02:37:18;11.90;99.90
64396;DHT22;50717;53.360;6.290;2023-06-10T02:39:43;12.70;99.90
64396;DHT22;50717;53.360;6.290;2023-06-10T02:42:09;11.90;99.90
64396;DHT22;50717;53.360;6.290;2023-06-10T02:44:36;11.70;99.90
64396;DHT22;50717;53.360;6.290;2023-06-10T02:47:01;12.40;99.90
64396;DHT22;50717;53.360;6.290;2023-06-10T02:49:27;12.10;99.90
64396;DHT22;50717;53.360;6.290;2023-06-10T02:51:53;9.80;99.90
64396;DHT22;50717;53.360;6.290;2023-06-10T02:54:20;11.80;99.90
64396;DHT22;50717;53.360;6.290;2023-06-10T02:56:45;11.90;99.90
64396;DHT22;50717;53.360;6.290;2023-06-10T02:59:13;11.60;99.90
64396;DHT22;50717;53.360;6.290;2023-06-10T03:01:39;12.30;99.90
64396;DHT22;50717;53.360;6.290;2023-06-10T03:04:06;11.70;99.90
64396;DHT22;50717;53.360;6.290;2023-06-10T03:06:33;12.10;99.90
64396;DHT22;50717;53.360;6.290;2023-06-10T03:09:02;12.60;99.90
64396;DHT22;50717;53.360;6.290;2023-06-10T03:11:33;11.70;99.90
64396;DHT22;50717;53.360;6.290;2023-06-10T03:13:58;12.40;99.90
64396;DHT22;50717;53.360;6.290;2023-06-10T03:16:24;12.00;99.90
64396;DHT22;50717;53.360;6.290;2023-06-10T03:18:53;12.40;99.90
64396;DHT22;50717;53.360;6.290;2023-06-10T03:21:19;11.70;99.90
64396;DHT22;50717;53.360;6.290;2023-06-10T03:23:45;11.80;99.90
64396;DHT22;50717;53.360;6.290;2023-06-10T03:26:11;11.80;99.90
64396;DHT22;50717;53.360;6.290;2023-06-10T03:28:40;11.70;99.90
64396;DHT22;50717;53.360;6.290;2023-06-10T03:31:06;11.90;99.90
64396;DHT22;50717;53.360;6.290;2023-06-10T03:33:31;11.60;99.90
64396;DHT22;50717;53.360;6.290;2023-06-10T03:35:57;12.60;99.90
64396;DHT22;50717;53.360;6.290;2023-06-10T03:38:23;12.00;99.90
64396;DHT22;50717;53.360;6.290;2023-06-10T03:40:49;12.20;99.90
64396;DHT22;50717;53.360;6.290;2023-06-10T03:43:15;12.30;99.90
64396;DHT22;50717;53.360;6.290;2023-06-10T03:45:40;11.20;99.90
64396;DHT22;50717;53.360;6.290;2023-06-10T03:48:07;12.60;99.90
64396;DHT22;50717;53.360;6.290;2023-06-10T03:50:34;12.20;99.90
64396;DHT22;50717;53.360;6.290;2023-06-10T03:53:00;11.80;99.90
64396;DHT22;50717;53.360;6.290;2023-06-10T03:55:26;11.50;99.90
64396;DHT22;50717;53.360;6.290;2023-06-10T03:57:51;12.40;99.90
64396;DHT22;50717;53.360;6.290;2023-06-10T04:00:18;11.50;99.90
64396;DHT22;50717;53.360;6.290;2023-06-10T04:02:46;11.60;99.90
64396;DHT22;50717;53.360;6.290;2023-06-10T04:05:13;11.60;99.90
64396;DHT22;50717;53.360;6.290;2023-06-10T04:07:39;12.60;99.90
64396;DHT22;50717;53.360;6.290;2023-06-10T04:10:10;12.50;99.90
64396;DHT22;50717;53.360;6.290;2023-06-10T04:12:37;11.70;99.90
64396;DHT22;50717;53.360;6.290;2023-06-10T04:15:06;12.90;99.90
64396;DHT22;50717;53.360;6.290;2023-06-10T04:17:32;12.60;99.90
64396;DHT22;50717;53.360;6.290;2023-06-10T04:19:58;12.10;99.90
64396;DHT22;50717;53.360;6.290;2023-06-10T04:22:24;12.00;99.90
64396;DHT22;50717;53.360;6.290;2023-06-10T04:24:49;12.10;99.90
64396;DHT22;50717;53.360;6.290;2023-06-10T04:27:15;11.40;99.90
64396;DHT22;50717;53.360;6.290;2023-06-10T04:29:41;11.90;99.90
64396;DHT22;50717;53.360;6.290;2023-06-10T04:32:07;12.80;99.90
64396;DHT22;50717;53.360;6.290;2023-06-10T04:34:36;14.50;99.90
64396;DHT22;50717;53.360;6.290;2023-06-10T04:37:04;13.20;99.90
64396;DHT22;50717;53.360;6.290;2023-06-10T04:39:30;13.50;99.90
64396;DHT22;50717;53.360;6.290;2023-06-10T04:41:56;12.50;99.90
64396;DHT22;50717;53.360;6.290;2023-06-10T04:44:22;13.50;99.90
64396;DHT22;50717;53.360;6.290;2023-06-10T04:46:47;12.80;99.90
64396;DHT22;50717;53.360;6.290;2023-06-10T04:49:13;12.80;99.90
64396;DHT22;50717;53.360;6.290;2023-06-10T04:51:42;13.40;99.90
64396;DHT22;50717;53.360;6.290;2023-06-10T04:54:07;14.10;99.90
64396;DHT22;50717;53.360;6.290;2023-06-10T04:56:33;14.50;99.90
64396;DHT22;50717;53.360;6.290;2023-06-10T04:58:59;14.40;99.90
64396;DHT22;50717;53.360;6.290;2023-06-10T05:01:25;14.50;99.90
64396;DHT22;50717;53.360;6.290;2023-06-10T05:03:51;13.50;99.90
64396;DHT22;50717;53.360;6.290;2023-06-10T05:06:17;14.00;99.90
64396;DHT22;50717;53.360;6.290;2023-06-10T05:08:42;14.70;99.90
64396;DHT22;50717;53.360;6.290;2023-06-10T05:11:08;14.00;99.90
64396;DHT22;50717;53.360;6.290;2023-06-10T05:13:34;13.70;99.90
64396;DHT22;50717;53.360;6.290;2023-06-10T05:16:00;14.70;99.90
64396;DHT22;50717;53.360;6.290;2023-06-10T05:18:25;14.90;99.90
64396;DHT22;50717;53.360;6.290;2023-06-10T05:20:52;14.40;99.90
64396;DHT22;50717;53.360;6.290;2023-06-10T05:23:19;15.00;99.90
64396;DHT22;50717;53.360;6.290;2023-06-10T05:25:45;14.20;99.90
64396;DHT22;50717;53.360;6.290;2023-06-10T05:28:11;14.20;99.90
64396;DHT22;50717;53.360;6.290;2023-06-10T05:30:37;15.00;99.90
64396;DHT22;50717;53.360;6.290;2023-06-10T05:33:03;15.10;99.90
64396;DHT22;50717;53.360;6.290;2023-06-10T05:35:28;15.50;99.90
64396;DHT22;50717;53.360;6.290;2023-06-10T05:37:54;14.80;99.90
64396;DHT22;50717;53.360;6.290;2023-06-10T05:40:20;15.40;99.90
64396;DHT22;50717;53.360;6.290;2023-06-10T05:42:45;15.50;99.90
64396;DHT22;50717;53.360;6.290;2023-06-10T05:45:11;15.30;99.90
64396;DHT22;50717;53.360;6.290;2023-06-10T05:47:37;15.20;99.90
64396;DHT22;50717;53.360;6.290;2023-06-10T05:50:03;15.80;99.90
64396;DHT22;50717;53.360;6.290;2023-06-10T05:52:33;15.90;99.90
64396;DHT22;50717;53.360;6.290;2023-06-10T05:54:59;15.40;99.90
64396;DHT22;50717;53.360;6.290;2023-06-10T05:57:25;15.50;99.90
64396;DHT22;50717;53.360;6.290;2023-06-10T05:59:51;15.40;99.90
64396;DHT22;50717;53.360;6.290;2023-06-10T06:02:17;16.30;99.90
64396;DHT22;50717;53.360;6.290;2023-06-10T06:04:43;15.60;99.90
64396;DHT22;50717;53.360;6.290;2023-06-10T06:07:08;15.60;99.90
64396;DHT22;50717;53.360;6.290;2023-06-10T06:09:34;15.60;99.90
64396;DHT22;50717;53.360;6.290;2023-06-10T06:12:00;16.00;99.90
64396;DHT22;50717;53.360;6.290;2023-06-10T06:14:26;16.20;99.90
64396;DHT22;50717;53.360;6.290;2023-06-10T06:16:51;16.20;99.90
64396;DHT22;50717;53.360;6.290;2023-06-10T06:19:17;15.90;99.90
64396;DHT22;50717;53.360;6.290;2023-06-10T06:21:42;16.10;99.90
64396;DHT22;50717;53.360;6.290;2023-06-10T06:24:08;16.20;99.90
64396;DHT22;50717;53.360;6.290;2023-06-10T06:26:34;16.70;99.90
64396;DHT22;50717;53.360;6.290;2023-06-10T06:28:59;16.50;99.90
64396;DHT22;50717;53.360;6.290;2023-06-10T06:31:25;16.80;99.90
64396;DHT22;50717;53.360;6.290;2023-06-10T06:33:51;16.80;99.90
64396;DHT22;50717;53.360;6.290;2023-06-10T06:36:16;16.30;99.90
64396;DHT22;50717;53.360;6.290;2023-06-10T06:38:42;17.00;99.90
64396;DHT22;50717;53.360;6.290;2023-06-10T06:41:08;16.90;99.90
64396;DHT22;50717;53.360;6.290;2023-06-10T06:43:34;17.10;99.90
64396;DHT22;50717;53.360;6.290;2023-06-10T06:45:59;17.40;99.90
64396;DHT22;50717;53.360;6.290;2023-06-10T06:48:25;17.40;99.90
64396;DHT22;50717;53.360;6.290;2023-06-10T06:50:50;17.20;99.90
64396;DHT22;50717;53.360;6.290;2023-06-10T06:53:16;17.60;99.90
64396;DHT22;50717;53.360;6.290;2023-06-10T06:55:42;17.80;99.90
64396;DHT22;50717;53.360;6.290;2023-06-10T06:58:07;17.30;99.90
64396;DHT22;50717;53.360;6.290;2023-06-10T07:00:33;17.70;99.90
64396;DHT22;50717;53.360;6.290;2023-06-10T07:02:59;18.10;99.90
64396;DHT22;50717;53.360;6.290;2023-06-10T07:05:24;17.70;99.90
64396;DHT22;50717;53.360;6.290;2023-06-10T07:07:54;17.60;99.90
64396;DHT22;50717;53.360;6.290;2023-06-10T07:10:24;17.90;99.90
64396;DHT22;50717;53.360;6.290;2023-06-10T07:12:51;18.00;99.90
64396;DHT22;50717;53.360;6.290;2023-06-10T07:15:17;18.00;99.90
64396;DHT22;50717;53.360;6.290;2023-06-10T07:17:43;18.20;99.90
64396;DHT22;50717;53.360;6.290;2023-06-10T07:20:10;18.40;99.90
64396;DHT22;50717;53.360;6.290;2023-06-10T07:22:36;18.80;99.90
64396;DHT22;50717;53.360;6.290;2023-06-10T07:25:04;18.60;99.90
64396;DHT22;50717;53.360;6.290;2023-06-10T07:27:30;18.60;99.90
64396;DHT22;50717;53.360;6.290;2023-06-10T07:29:56;18.70;99.90
64396;DHT22;50717;53.360;6.290;2023-06-10T07:32:22;18.70;99.90
64396;DHT22;50717;53.360;6.290;2023-06-10T07:34:49;19.00;99.90
64396;DHT22;50717;53.360;6.290;2023-06-10T07:37:15;18.90;99.90
64396;DHT22;50717;53.360;6.290;2023-06-10T07:39:40;18.80;99.90
64396;DHT22;50717;53.360;6.290;2023-06-10T07:42:07;19.00;99.90
64396;DHT22;50717;53.360;6.290;2023-06-10T07:44:33;19.50;99.90
64396;DHT22;50717;53.360;6.290;2023-06-10T07:46:59;19.30;99.90
64396;DHT22;50717;53.360;6.290;2023-06-10T07:49:25;19.20;99.90
64396;DHT22;50717;53.360;6.290;2023-06-10T07:51:51;19.40;99.90
64396;DHT22;50717;53.360;6.290;2023-06-10T07:54:16;19.50;99.90
64396;DHT22;50717;53.360;6.290;2023-06-10T07:56:42;19.60;99.90
64396;DHT22;50717;53.360;6.290;2023-06-10T07:59:08;19.70;99.90
64396;DHT22;50717;53.360;6.290;2023-06-10T08:01:33;20.00;99.90
64396;DHT22;50717;53.360;6.290;2023-06-10T08:04:01;20.20;99.90
64396;DHT22;50717;53.360;6.290;2023-06-10T08:06:27;20.00;99.90
64396;DHT22;50717;53.360;6.290;2023-06-10T08:08:52;19.80;99.90
64396;DHT22;50717;53.360;6.290;2023-06-10T08:11:18;20.00;99.90
64396;DHT22;50717;53.360;6.290;2023-06-10T08:13:44;19.80;99.90
64396;DHT22;50717;53.360;6.290;2023-06-10T08:16:10;20.10;99.90
64396;DHT22;50717;53.360;6.290;2023-06-10T08:18:35;19.80;99.90
64396;DHT22;50717;53.360;6.290;2023-06-10T08:21:01;20.20;99.90
64396;DHT22;50717;53.360;6.290;2023-06-10T08:23:27;19.80;99.90
64396;DHT22;50717;53.360;6.290;2023-06-10T08:25:52;20.00;99.90
64396;DHT22;50717;53.360;6.290;2023-06-10T08:28:18;20.00;99.90
64396;DHT22;50717;53.360;6.290;2023-06-10T08:30:44;20.70;99.90
64396;DHT22;50717;53.360;6.290;2023-06-10T08:33:10;20.70;99.90
64396;DHT22;50717;53.360;6.290;2023-06-10T08:35:36;20.70;99.90
64396;DHT22;50717;53.360;6.290;2023-06-10T08:38:01;21.10;99.90
64396;DHT22;50717;53.360;6.290;2023-06-10T08:40:27;20.60;99.90
64396;DHT22;50717;53.360;6.290;2023-06-10T08:45:23;21.20;99.90
64396;DHT22;50717;53.360;6.290;2023-06-10T08:47:50;20.90;99.90
64396;DHT22;50717;53.360;6.290;2023-06-10T08:50:19;23.00;99.90
64396;DHT22;50717;53.360;6.290;2023-06-10T08:52:48;21.50;99.90
64396;DHT22;50717;53.360;6.290;2023-06-10T08:55:35;21.30;99.90
64396;DHT22;50717;53.360;6.290;2023-06-10T08:58:02;21.70;99.90
64396;DHT22;50717;53.360;6.290;2023-06-10T09:00:28;21.50;99.90
64396;DHT22;50717;53.360;6.290;2023-06-10T09:02:55;21.60;99.90
64396;DHT22;50717;53.360;6.290;2023-06-10T09:05:22;21.50;99.90
64396;DHT22;50717;53.360;6.290;2023-06-10T09:07:48;21.40;99.90
64396;DHT22;50717;53.360;6.290;2023-06-10T09:10:14;21.70;99.90
64396;DHT22;50717;53.360;6.290;2023-06-10T09:12:40;21.60;99.90
64396;DHT22;50717;53.360;6.290;2023-06-10T09:15:07;21.80;99.90
64396;DHT22;50717;53.360;6.290;2023-06-10T09:17:33;21.70;99.90
64396;DHT22;50717;53.360;6.290;2023-06-10T09:20:02;21.90;99.90
64396;DHT22;50717;53.360;6.290;2023-06-10T09:22:28;22.00;99.90
64396;DHT22;50717;53.360;6.290;2023-06-10T09:25:08;22.00;99.90
64396;DHT22;50717;53.360;6.290;2023-06-10T09:27:54;22.40;99.90
64396;DHT22;50717;53.360;6.290;2023-06-10T09:30:32;22.40;99.90
64396;DHT22;50717;53.360;6.290;2023-06-10T09:33:03;22.40;99.90
64396;DHT22;50717;53.360;6.290;2023-06-10T09:35:34;22.50;99.90
64396;DHT22;50717;53.360;6.290;2023-06-10T09:38:01;22.30;99.90
64396;DHT22;50717;53.360;6.290;2023-06-10T09:40:28;22.70;99.90
64396;DHT22;50717;53.360;6.290;2023-06-10T09:42:55;22.80;99.90
64396;DHT22;50717;53.360;6.290;2023-06-10T09:45:22;23.10;99.90
64396;DHT22;50717;53.360;6.290;2023-06-10T09:47:52;22.80;99.90
64396;DHT22;50717;53.360;6.290;2023-06-10T09:50:18;23.20;99.90
64396;DHT22;50717;53.360;6.290;2023-06-10T09:52:45;23.40;99.90
64396;DHT22;50717;53.360;6.290;2023-06-10T09:55:11;23.20;99.90
64396;DHT22;50717;53.360;6.290;2023-06-10T09:57:37;23.60;99.90
64396;DHT22;50717;53.360;6.290;2023-06-10T10:00:06;23.30;99.90
64396;DHT22;50717;53.360;6.290;2023-06-10T10:02:47;23.30;99.90
64396;DHT22;50717;53.360;6.290;2023-06-10T10:05:15;23.40;99.90
64396;DHT22;50717;53.360;6.290;2023-06-10T10:07:42;23.40;99.90
64396;DHT22;50717;53.360;6.290;2023-06-10T10:10:08;23.70;99.90
64396;DHT22;50717;53.360;6.290;2023-06-10T10:12:36;23.40;99.90
64396;DHT22;50717;53.360;6.290;2023-06-10T10:15:03;23.50;99.90
64396;DHT22;50717;53.360;6.290;2023-06-10T10:17:32;23.70;99.90
64396;DHT22;50717;53.360;6.290;2023-06-10T10:20:03;23.30;99.90
64396;DHT22;50717;53.360;6.290;2023-06-10T10:22:38;23.70;99.90
64396;DHT22;50717;53.360;6.290;2023-06-10T10:25:57;23.90;99.90
64396;DHT22;50717;53.360;6.290;2023-06-10T10:28:19;24.10;99.90
64396;DHT22;50717;53.360;6.290;2023-06-10T10:30:50;23.90;99.90
64396;DHT22;50717;53.360;6.290;2023-06-10T10:33:24;24.00;99.90
64396;DHT22;50717;53.360;6.290;2023-06-10T10:35:53;24.00;99.90
64396;DHT22;50717;53.360;6.290;2023-06-10T10:38:19;24.00;99.90
64396;DHT22;50717;53.360;6.290;2023-06-10T10:40:46;23.80;99.90
64396;DHT22;50717;53.360;6.290;2023-06-10T10:43:13;24.10;99.90
64396;DHT22;50717;53.360;6.290;2023-06-10T10:45:40;23.80;99.90
64396;DHT22;50717;53.360;6.290;2023-06-10T10:48:08;24.50;99.90
64396;DHT22;50717;53.360;6.290;2023-06-10T10:50:37;24.00;99.90
64396;DHT22;50717;53.360;6.290;2023-06-10T10:53:04;24.00;99.90
64396;DHT22;50717;53.360;6.290;2023-06-10T10:55:31;24.30;99.90
64396;DHT22;50717;53.360;6.290;2023-06-10T10:57:59;24.40;99.90
64396;DHT22;50717;53.360;6.290;2023-06-10T11:00:29;24.10;99.90
64396;DHT22;50717;53.360;6.290;2023-06-10T11:03:08;24.40;99.90
64396;DHT22;50717;53.360;6.290;2023-06-10T11:05:42;24.50;99.90
64396;DHT22;50717;53.360;6.290;2023-06-10T11:08:10;24.50;99.90
64396;DHT22;50717;53.360;6.290;2023-06-10T11:10:41;23.90;99.90
64396;DHT22;50717;53.360;6.290;2023-06-10T11:13:13;23.80;99.90
64396;DHT22;50717;53.360;6.290;2023-06-10T11:15:52;24.30;99.90
64396;DHT22;50717;53.360;6.290;2023-06-10T11:18:25;23.90;99.90
64396;DHT22;50717;53.360;6.290;2023-06-10T11:21:01;23.70;99.90
64396;DHT22;50717;53.360;6.290;2023-06-10T11:28:40;23.70;99.90
64396;DHT22;50717;53.360;6.290;2023-06-10T11:31:06;23.80;99.90
64396;DHT22;50717;53.360;6.290;2023-06-10T11:33:32;23.80;99.90
64396;DHT22;50717;53.360;6.290;2023-06-10T11:35:58;23.70;99.90
64396;DHT22;50717;53.360;6.290;2023-06-10T11:38:24;23.70;99.90
64396;DHT22;50717;53.360;6.290;2023-06-10T11:40:51;23.60;99.90
64396;DHT22;50717;53.360;6.290;2023-06-10T11:43:20;24.10;99.90
64396;DHT22;50717;53.360;6.290;2023-06-10T11:45:46;23.80;99.90
64396;DHT22;50717;53.360;6.290;2023-06-10T11:48:14;23.90;99.90
64396;DHT22;50717;53.360;6.290;2023-06-10T11:50:40;23.50;99.90
64396;DHT22;50717;53.360;6.290;2023-06-10T11:53:08;23.80;99.90
64396;DHT22;50717;53.360;6.290;2023-06-10T11:55:45;24.00;99.90
64396;DHT22;50717;53.360;6.290;2023-06-10T11:58:19;24.40;99.90
64396;DHT22;50717;53.360;6.290;2023-06-10T12:03:12;23.80;99.90
64396;DHT22;50717;53.360;6.290;2023-06-10T12:05:37;24.10;99.90
64396;DHT22;50717;53.360;6.290;2023-06-10T12:08:10;24.20;99.90
64396;DHT22;50717;53.360;6.290;2023-06-10T12:10:40;23.80;99.90
64396;DHT22;50717;53.360;6.290;2023-06-10T12:13:10;23.80;99.90
64396;DHT22;50717;53.360;6.290;2023-06-10T12:15:36;23.70;99.90
64396;DHT22;50717;53.360;6.290;2023-06-10T12:18:02;23.80;99.90
64396;DHT22;50717;53.360;6.290;2023-06-10T12:20:30;23.50;99.90
64396;DHT22;50717;53.360;6.290;2023-06-10T12:23:07;24.10;99.90
64396;DHT22;50717;53.360;6.290;2023-06-10T12:25:33;23.80;99.90
64396;DHT22;50717;53.360;6.290;2023-06-10T12:27:59;23.80;99.90
64396;DHT22;50717;53.360;6.290;2023-06-10T12:30:26;23.80;99.90
64396;DHT22;50717;53.360;6.290;2023-06-10T12:32:52;24.00;99.90
64396;DHT22;50717;53.360;6.290;2023-06-10T12:35:23;24.40;99.90
64396;DHT22;50717;53.360;6.290;2023-06-10T12:38:02;24.50;99.90
64396;DHT22;50717;53.360;6.290;2023-06-10T12:40:31;24.50;99.90
64396;DHT22;50717;53.360;6.290;2023-06-10T12:42:58;24.20;99.90
64396;DHT22;50717;53.360;6.290;2023-06-10T12:45:28;24.30;99.90
64396;DHT22;50717;53.360;6.290;2023-06-10T12:48:04;24.60;99.90
64396;DHT22;50717;53.360;6.290;2023-06-10T12:50:31;24.30;99.90
64396;DHT22;50717;53.360;6.290;2023-06-10T12:52:57;24.30;99.90
64396;DHT22;50717;53.360;6.290;2023-06-10T12:55:22;24.40;99.90
64396;DHT22;50717;53.360;6.290;2023-06-10T12:57:51;24.20;99.90
64396;DHT22;50717;53.360;6.290;2023-06-10T13:00:18;23.90;99.90
64396;DHT22;50717;53.360;6.290;2023-06-10T13:02:44;24.00;99.90
64396;DHT22;50717;53.360;6.290;2023-06-10T13:05:09;24.00;99.90
64396;DHT22;50717;53.360;6.290;2023-06-10T13:07:35;24.30;99.90
64396;DHT22;50717;53.360;6.290;2023-06-10T13:10:01;24.30;99.90
64396;DHT22;50717;53.360;6.290;2023-06-10T13:12:27;24.20;99.90
64396;DHT22;50717;53.360;6.290;2023-06-10T13:14:56;24.30;99.90
64396;DHT22;50717;53.360;6.290;2023-06-10T13:17:22;23.60;99.90
64396;DHT22;50717;53.360;6.290;2023-06-10T13:19:47;23.90;99.90
64396;DHT22;50717;53.360;6.290;2023-06-10T13:22:14;24.00;99.90
64396;DHT22;50717;53.360;6.290;2023-06-10T13:24:40;23.90;99.90
64396;DHT22;50717;53.360;6.290;2023-06-10T13:27:06;23.60;99.90
64396;DHT22;50717;53.360;6.290;2023-06-10T13:29:32;23.70;99.90
64396;DHT22;50717;53.360;6.290;2023-06-10T13:31:58;24.00;99.90
64396;DHT22;50717;53.360;6.290;2023-06-10T13:34:24;24.30;99.90
64396;DHT22;50717;53.360;6.290;2023-06-10T13:36:49;24.70;99.90
64396;DHT22;50717;53.360;6.290;2023-06-10T13:39:15;24.80;99.90
64396;DHT22;50717;53.360;6.290;2023-06-10T13:41:41;24.60;99.90
64396;DHT22;50717;53.360;6.290;2023-06-10T13:44:07;24.60;99.90
64396;DHT22;50717;53.360;6.290;2023-06-10T13:46:33;24.20;99.90
64396;DHT22;50717;53.360;6.290;2023-06-10T13:48:58;23.90;99.90
64396;DHT22;50717;53.360;6.290;2023-06-10T13:51:24;24.20;99.90
64396;DHT22;50717;53.360;6.290;2023-06-10T13:53:50;24.20;99.90
64396;DHT22;50717;53.360;6.290;2023-06-10T13:56:18;24.10;99.90
64396;DHT22;50717;53.360;6.290;2023-06-10T13:58:43;24.60;99.90
64396;DHT22;50717;53.360;6.290;2023-06-10T14:01:10;24.80;99.90
64396;DHT22;50717;53.360;6.290;2023-06-10T14:03:36;24.80;99.90
64396;DHT22;50717;53.360;6.290;2023-06-10T14:06:02;24.60;99.90
64396;DHT22;50717;53.360;6.290;2023-06-10T14:08:28;24.80;99.90
64396;DHT22;50717;53.360;6.290;2023-06-10T14:10:54;25.00;99.90
64396;DHT22;50717;53.360;6.290;2023-06-10T14:13:20;25.20;99.90
64396;DHT22;50717;53.360;6.290;2023-06-10T14:15:45;25.20;99.90
64396;DHT22;50717;53.360;6.290;2023-06-10T14:18:12;24.90;99.90
64396;DHT22;50717;53.360;6.290;2023-06-10T14:20:37;24.80;99.90
64396;DHT22;50717;53.360;6.290;2023-06-10T14:23:03;24.40;99.90
64396;DHT22;50717;53.360;6.290;2023-06-10T14:25:29;24.50;99.90
64396;DHT22;50717;53.360;6.290;2023-06-10T14:27:54;24.70;99.90
64396;DHT22;50717;53.360;6.290;2023-06-10T14:30:20;24.60;99.90
64396;DHT22;50717;53.360;6.290;2023-06-10T14:32:46;24.90;99.90
64396;DHT22;50717;53.360;6.290;2023-06-10T14:35:11;24.90;99.90
64396;DHT22;50717;53.360;6.290;2023-06-10T14:37:37;25.20;99.90
64396;DHT22;50717;53.360;6.290;2023-06-10T14:40:06;25.30;99.90
64396;DHT22;50717;53.360;6.290;2023-06-10T14:42:32;25.80;99.90
64396;DHT22;50717;53.360;6.290;2023-06-10T14:44:58;26.40;99.90
64396;DHT22;50717;53.360;6.290;2023-06-10T14:47:24;25.80;99.90
64396;DHT22;50717;53.360;6.290;2023-06-10T14:49:50;25.80;99.90
64396;DHT22;50717;53.360;6.290;2023-06-10T14:52:16;26.10;99.90
64396;DHT22;50717;53.360;6.290;2023-06-10T14:54:42;25.80;99.90
64396;DHT22;50717;53.360;6.290;2023-06-10T14:57:07;26.40;99.90
64396;DHT22;50717;53.360;6.290;2023-06-10T14:59:34;26.40;99.90
64396;DHT22;50717;53.360;6.290;2023-06-10T15:02:00;26.10;99.90
64396;DHT22;50717;53.360;6.290;2023-06-10T15:04:27;26.70;99.90
64396;DHT22;50717;53.360;6.290;2023-06-10T15:06:52;26.70;99.90
64396;DHT22;50717;53.360;6.290;2023-06-10T15:09:18;26.10;99.90
64396;DHT22;50717;53.360;6.290;2023-06-10T15:11:44;26.50;99.90
64396;DHT22;50717;53.360;6.290;2023-06-10T15:14:09;26.10;99.90
64396;DHT22;50717;53.360;6.290;2023-06-10T15:16:35;26.20;99.90
64396;DHT22;50717;53.360;6.290;2023-06-10T15:19:01;26.30;99.90
64396;DHT22;50717;53.360;6.290;2023-06-10T15:21:26;25.70;99.90
64396;DHT22;50717;53.360;6.290;2023-06-10T15:23:52;26.40;99.90
64396;DHT22;50717;53.360;6.290;2023-06-10T15:26:18;26.90;99.90
64396;DHT22;50717;53.360;6.290;2023-06-10T15:28:44;26.70;99.90
64396;DHT22;50717;53.360;6.290;2023-06-10T15:31:10;26.80;99.90
64396;DHT22;50717;53.360;6.290;2023-06-10T15:33:35;27.00;99.90
64396;DHT22;50717;53.360;6.290;2023-06-10T15:36:01;26.80;99.90
64396;DHT22;50717;53.360;6.290;2023-06-10T15:38:27;27.40;99.90
64396;DHT22;50717;53.360;6.290;2023-06-10T15:40:53;27.20;99.90
64396;DHT22;50717;53.360;6.290;2023-06-10T15:43:19;27.60;99.90
64396;DHT22;50717;53.360;6.290;2023-06-10T15:45:45;27.80;99.90